createdAt,value
2023-05-01T00:00:08.166Z,100012.84
2023-05-01T00:05:12.382Z,100023.53
2023-05-01T00:10:16.782Z,100025.88
2023-05-01T00:15:20.885Z,99981.72
2023-05-01T00:20:31.126Z,100044.63
2023-05-01T00:25:35.388Z,100023.38
2023-05-01T00:30:39.334Z,100041.97
2023-05-01T00:35:47.674Z,100046.25
2023-05-01T00:40:51.644Z,100036.44
2023-05-01T00:45:55.884Z,100038.47
2023-05-01T00:51:02.889Z,100042.50
2023-05-01T00:56:09.437Z,100035.34
2023-05-01T01:01:14.016Z,100050.09
2023-05-01T01:06:18.844Z,100041.41
2023-05-01T01:11:55.264Z,100042.84
2023-05-01T01:17:13.096Z,100052.09
2023-05-01T01:22:24.190Z,100042.69
2023-05-01T01:27:49.845Z,100045.84
2023-05-01T01:33:37.314Z,100047.31
2023-05-01T01:38:59.269Z,100051.03
2023-05-01T01:44:21.641Z,100061.28
2023-05-01T01:49:28.701Z,100055.88
2023-05-01T01:55:37.624Z,100061.16
2023-05-01T02:00:45.361Z,100054.28
2023-05-01T02:05:51.806Z,100065.09
2023-05-01T02:11:02.040Z,100057.53
2023-05-01T02:16:08.202Z,100072.28
2023-05-01T02:21:13.368Z,100075.19
2023-05-01T02:26:19.346Z,100076.13
2023-05-01T02:31:23.774Z,100074.22
2023-05-01T02:36:28.903Z,100060.75
2023-05-01T02:41:35.905Z,100078.28
2023-05-01T02:46:45.582Z,100072.19
2023-05-01T02:51:50.857Z,100041.53
2023-05-01T02:56:55.046Z,100077.53
2023-05-01T03:01:59.333Z,100074.88
2023-05-01T03:07:03.473Z,100087.56
2023-05-01T03:12:07.566Z,100095.41
2023-05-01T03:17:11.531Z,100100.75
2023-05-01T03:22:15.877Z,100104.91
2023-05-01T03:27:19.680Z,100109.16
2023-05-01T03:32:24.070Z,100116.47
2023-05-01T03:37:29.689Z,100090.06
2023-05-01T03:42:33.596Z,100116.47
2023-05-01T03:47:44.979Z,100121.63
2023-05-01T03:52:49.071Z,100115.75
2023-05-01T03:57:53.490Z,100121.72
2023-05-01T04:02:58.366Z,100129.22
2023-05-01T04:08:02.965Z,100122.47
2023-05-01T04:13:32.361Z,100121.72
2023-05-01T04:18:36.476Z,100124.41
2023-05-01T04:23:40.477Z,100135.19
2023-05-01T04:28:45.336Z,100138.88
2023-05-01T04:33:51.444Z,100144.88
2023-05-01T04:38:56.222Z,100134.19
2023-05-01T04:44:00.167Z,100134.06
2023-05-01T04:49:04.259Z,100131.16
2023-05-01T04:54:08.247Z,100123.88
2023-05-01T04:59:14.219Z,100143.00
2023-05-01T05:04:18.312Z,100056.09
2023-05-01T05:09:22.376Z,100137.53
2023-05-01T05:14:26.499Z,100137.41
2023-05-01T05:19:30.837Z,100140.28
2023-05-01T05:24:34.919Z,100119.53
2023-05-01T05:29:38.869Z,100146.66
2023-05-01T05:34:43.303Z,100141.56
2023-05-01T05:39:47.287Z,100150.47
2023-05-01T05:44:51.764Z,100082.91
2023-05-01T05:49:56.951Z,100141.78
2023-05-01T05:55:01.717Z,100145.22
2023-05-01T06:00:10.202Z,100145.13
2023-05-01T06:05:20.356Z,100154.56
2023-05-01T06:10:24.370Z,100150.28
2023-05-01T06:15:28.798Z,100147.00
2023-05-01T06:20:33.383Z,100160.19
2023-05-01T06:25:38.475Z,100166.22
2023-05-01T06:30:42.349Z,100166.03
2023-05-01T06:35:47.654Z,100165.59
2023-05-01T06:40:51.634Z,100153.75
2023-05-01T06:45:55.776Z,100165.81
2023-05-01T06:50:59.883Z,100164.44
2023-05-01T06:56:04.129Z,100167.22
2023-05-01T07:01:09.171Z,100161.75
2023-05-01T07:06:13.059Z,100179.63
2023-05-01T07:11:17.300Z,100178.16
2023-05-01T07:16:21.902Z,100178.63
2023-05-01T07:21:26.197Z,100186.75
2023-05-01T07:26:30.079Z,100189.06
2023-05-01T07:32:11.523Z,100194.63
2023-05-01T07:37:15.676Z,100203.56
2023-05-01T07:42:19.425Z,100215.50
2023-05-01T07:47:23.879Z,100211.06
2023-05-01T07:52:28.188Z,100225.13
2023-05-01T07:57:35.066Z,100222.72
2023-05-01T08:02:39.228Z,100232.19
2023-05-01T08:07:43.208Z,100230.41
2023-05-01T08:12:47.212Z,100246.38
2023-05-01T08:17:51.937Z,100244.19
2023-05-01T08:22:56.047Z,100229.88
2023-05-01T08:28:00.014Z,100257.50
2023-05-01T08:33:04.326Z,100257.00
2023-05-01T08:38:08.379Z,100248.84
2023-05-01T08:43:13.691Z,100263.53
2023-05-01T08:48:19.422Z,100265.97
2023-05-01T08:53:26.911Z,100264.69
2023-05-01T08:58:32.750Z,100279.22
2023-05-01T09:03:38.734Z,100282.41
2023-05-01T09:08:42.923Z,100285.44
2023-05-01T09:13:47.900Z,100289.34
2023-05-01T09:18:52.966Z,100290.31
2023-05-01T09:23:57.154Z,100289.13
2023-05-01T09:29:01.198Z,100291.75
2023-05-01T09:34:08.067Z,100291.38
2023-05-01T09:39:24.558Z,100309.00
2023-05-01T09:44:28.669Z,100311.88
2023-05-01T09:49:49.726Z,100317.28
2023-05-01T09:55:19.988Z,100316.72
2023-05-01T10:00:24.052Z,100331.59
2023-05-01T10:05:28.322Z,100332.81
2023-05-01T10:10:32.441Z,100334.69
2023-05-01T10:15:39.329Z,100339.91
2023-05-01T10:20:43.341Z,100342.63
2023-05-01T10:25:50.719Z,100346.03
2023-05-01T10:30:56.527Z,100346.63
2023-05-01T10:36:01.853Z,100357.16
2023-05-01T10:41:07.429Z,100348.31
2023-05-01T10:46:11.251Z,100381.44
2023-05-01T10:51:24.923Z,100382.56
2023-05-01T10:56:34.947Z,100389.59
2023-05-01T11:01:48.256Z,100393.19
2023-05-01T11:07:11.754Z,100395.25
2023-05-01T11:12:37.153Z,100416.88
2023-05-01T11:17:43.829Z,100408.94
2023-05-01T11:22:48.350Z,100399.34
2023-05-01T11:27:54.564Z,100408.06
2023-05-01T11:32:58.755Z,100413.94
2023-05-01T11:38:03.683Z,100409.69
2023-05-01T11:43:09.717Z,100412.94
2023-05-01T11:48:19.928Z,100414.38
2023-05-01T11:53:24.768Z,100420.81
2023-05-01T11:58:34.461Z,100419.66
2023-05-01T12:03:43.503Z,100423.31
2023-05-01T12:08:52.446Z,100427.44
2023-05-01T12:14:25.054Z,100426.44
2023-05-01T12:19:29.191Z,100437.63
2023-05-01T12:24:33.020Z,100450.50
2023-05-01T12:30:02.352Z,100454.03
2023-05-01T12:35:16.709Z,100442.66
2023-05-01T12:40:23.676Z,100467.13
2023-05-01T12:45:27.858Z,100477.59
2023-05-01T12:50:38.413Z,100484.59
2023-05-01T12:55:51.457Z,100482.53
2023-05-01T13:01:15.279Z,100495.22
2023-05-01T13:06:19.369Z,100494.78
2023-05-01T13:11:23.611Z,100499.53
2023-05-01T13:16:28.267Z,100502.03
2023-05-01T13:21:32.640Z,100512.56
2023-05-01T13:26:37.194Z,100522.06
2023-05-01T13:31:45.262Z,100513.47
2023-05-01T13:36:49.524Z,100515.28
2023-05-01T13:41:54.426Z,100515.59
2023-05-01T13:46:59.909Z,100520.09
2023-05-01T13:52:03.960Z,100527.38
2023-05-01T13:57:08.103Z,100536.06
2023-05-01T14:02:31.058Z,100544.41
2023-05-01T14:07:40.718Z,100547.50
2023-05-01T14:12:44.762Z,100545.69
2023-05-01T14:17:50.421Z,100557.22
2023-05-01T14:22:54.421Z,100557.50
2023-05-01T14:28:01.797Z,100544.31
2023-05-01T14:33:12.385Z,100562.19
2023-05-01T14:38:18.508Z,100565.91
2023-05-01T14:43:22.857Z,100556.75
2023-05-01T14:48:31.702Z,100587.50
2023-05-01T14:53:35.700Z,100585.97
2023-05-01T14:58:40.052Z,100592.59
2023-05-01T15:03:44.458Z,100601.41
2023-05-01T15:08:48.555Z,100600.63
2023-05-01T15:13:52.508Z,100596.31
2023-05-01T15:18:56.899Z,100612.44
2023-05-01T15:24:01.110Z,100613.22
2023-05-01T15:29:05.280Z,100571.31
2023-05-01T15:34:09.366Z,100609.50
2023-05-01T15:39:13.962Z,100616.06
2023-05-01T15:44:18.961Z,100634.19
2023-05-01T15:49:22.845Z,100633.41
2023-05-01T15:54:28.660Z,100636.91
2023-05-01T15:59:32.622Z,100650.66
2023-05-01T16:04:36.755Z,100655.91
2023-05-01T16:09:40.682Z,100656.94
2023-05-01T16:14:45.254Z,100665.59
2023-05-01T16:19:50.401Z,100640.13
2023-05-01T16:24:54.439Z,100657.91
2023-05-01T16:29:58.805Z,100658.78
2023-05-01T16:35:06.003Z,100648.84
2023-05-01T16:40:10.953Z,100659.78
2023-05-01T16:45:14.932Z,100663.31
2023-05-01T16:50:20.302Z,100674.69
2023-05-01T16:55:27.098Z,100671.34
2023-05-01T17:00:31.870Z,100675.75
2023-05-01T17:05:35.868Z,100680.06
2023-05-01T17:10:39.811Z,100681.03
2023-05-01T17:15:43.743Z,100682.72
2023-05-01T17:20:49.394Z,100690.66
2023-05-01T17:25:53.401Z,100702.75
2023-05-01T17:30:57.361Z,100691.88
2023-05-01T17:36:01.216Z,100689.44
2023-05-01T17:41:05.291Z,100703.38
2023-05-01T17:46:09.917Z,100694.25
2023-05-01T17:51:16.711Z,100690.66
2023-05-01T17:56:20.597Z,100695.75
2023-05-01T18:01:24.797Z,100701.00
2023-05-01T18:06:28.927Z,100712.16
2023-05-01T18:11:32.883Z,100700.16
2023-05-01T18:16:36.896Z,100715.53
2023-05-01T18:21:40.951Z,100716.38
2023-05-01T18:26:45.161Z,100718.16
2023-05-01T18:31:51.946Z,100722.25
2023-05-01T18:36:55.879Z,100724.00
2023-05-01T18:41:59.881Z,100738.28
2023-05-01T18:47:03.732Z,100738.28
2023-05-01T18:52:07.863Z,100753.84
2023-05-01T18:57:11.764Z,100742.66
2023-05-01T19:02:15.967Z,100746.22
2023-05-01T19:07:20.164Z,100748.16
2023-05-01T19:12:24.208Z,100757.72
2023-05-01T19:17:28.473Z,100747.44
2023-05-01T19:22:32.559Z,100743.53
2023-05-01T19:27:36.709Z,100752.19
2023-05-01T19:32:41.054Z,100759.31
2023-05-01T19:37:45.092Z,100765.44
2023-05-01T19:42:49.202Z,100764.91
2023-05-01T19:47:53.103Z,100780.84
2023-05-01T19:52:57.170Z,100776.28
2023-05-01T19:58:01.067Z,100785.09
2023-05-01T20:03:06.022Z,100790.44
2023-05-01T20:08:10.239Z,100783.72
2023-05-01T20:13:14.162Z,100786.59
2023-05-01T20:18:18.257Z,100798.75
2023-05-01T20:23:25.400Z,100800.59
2023-05-01T20:28:30.455Z,100802.41
2023-05-01T20:33:34.327Z,100797.28
2023-05-01T20:38:46.353Z,100815.41
2023-05-01T20:43:50.382Z,100812.94
2023-05-01T20:48:55.146Z,100815.63
2023-05-01T20:53:59.122Z,100829.38
2023-05-01T20:59:04.375Z,100834.63
2023-05-01T21:04:08.694Z,100832.16
2023-05-01T21:09:15.411Z,100829.69
2023-05-01T21:14:19.513Z,100845.16
2023-05-01T21:19:23.918Z,100840.16
2023-05-01T21:24:28.190Z,100857.31
2023-05-01T21:29:32.099Z,100856.63
2023-05-01T21:34:36.390Z,100840.50
2023-05-01T21:39:40.534Z,100798.50
2023-05-01T21:44:44.462Z,100842.38
2023-05-01T21:49:48.671Z,100863.66
2023-05-01T21:54:52.406Z,100869.59
2023-05-01T21:59:59.333Z,100860.06
2023-05-01T22:05:03.814Z,100882.22
2023-05-01T22:10:13.775Z,100879.06
2023-05-01T22:15:18.053Z,100893.00
2023-05-01T22:20:22.001Z,100892.41
2023-05-01T22:25:26.637Z,100902.94
2023-05-01T22:30:30.848Z,100900.44
2023-05-01T22:35:34.744Z,100912.31
2023-05-01T22:40:39.192Z,100913.19
2023-05-01T22:45:43.502Z,100916.56
2023-05-01T22:50:47.506Z,100924.94
2023-05-01T22:55:51.568Z,100921.53
2023-05-01T23:00:55.680Z,100923.31
2023-05-01T23:05:59.764Z,100932.78
2023-05-01T23:11:05.000Z,100939.03
2023-05-01T23:16:09.288Z,100948.41
2023-05-01T23:21:18.932Z,100950.03
2023-05-01T23:26:29.963Z,100951.78
2023-05-01T23:31:34.277Z,100956.28
2023-05-01T23:36:38.346Z,100976.06
2023-05-01T23:41:42.731Z,100958.84
2023-05-01T23:46:48.046Z,100972.41
2023-05-01T23:51:52.021Z,100976.53
2023-05-01T23:56:56.074Z,100972.25
